Airfield :
LOGIN :

Register | Disclaimer

   EN    FR    IT 

 










Legend :    VFR   Marginal VFR   IFR   Intensive IFR   Very Intensive IFR
Visi :
Ceiling :
>= 8 km
>= 3000ft
5 to 8 km
1000 to 3000 ft
1500m to 5 km
500 to 1000 ft
800 to 1500m
200 to 500 ft
< 800m
< 200 ft
Symbols :   Thunderstorms  Fog  Heavy snow  Heavy precipitations  Wind > 20 kt
SIGMETs :     Misc.  Thunderstorms  Icing  Turbulence  Mountain Waves  Volcanic Ashes






- Airport Elevation : 117 ft
- IATA code : NWI


EGSH - Norwich

CURRENT METAR :
  • 301450Z 09011KT 060V130 9999 FEW048 21/09 Q1024

EXPIRED METARs :
  • 301420Z 09010KT 060V120 9999 FEW048 21/09 Q1024 NOSIG
  • 301350Z 10010KT 060V140 CAVOK 21/08 Q1024 NOSIG
  • 301320Z 09011KT 050V120 9999 FEW045 21/08 Q1025 NOSIG
  • 301250Z 08011KT 050V110 9999 FEW040 21/08 Q1025 NOSIG
  • 301220Z 09010KT 040V140 9999 FEW040 20/09 Q1025 NOSIG

TAF TAF EGSH
Valid from the 30 at 15:00 until the 31 at 00:00 UTC


301351Z 3015/3024 08007KT CAVOK
ATIS : +44 1603 420 640



MET'MAP, your aeronautical weather chart ! - Copyright ORBIFLY December 2007 - Disclaimer

ORBIFLY MET'MAP TEAM :

Programming & Development : Alexandra Zaïnal
Concept & original design : Baudouin d'Aumeries
Assistance for programming : Marc-Olivier Méhu
Technical & hardware support : Manuel Goepfert

Contact : metmap@orbifly.com




SOURCES & CREDITS :

   NOAA